Time;durP1;ratioP1;P1;durP2;ratioP2;P2;SDS_P1;SDS_P2;PMS_P1;PMS_P2;Temp;Humidity;BMP_temperature;BMP_pressure;BME280_temperature;BME280_humidity;BME280_pressure;Samples;Min_cycle;Max_cycle;Signal;HPM_P1;HPM_P2
2022/11/13 00:02:13;;;;;;;27.30;24.40;;;;;;;;;;5072353;28;20440;-75
2022/11/13 00:04:40;;;;;;;27.80;25.07;;;;;;;;;;5071985;28;20516;-76
2022/11/13 00:07:07;;;;;;;27.40;24.53;;;;;;;;;;5072312;28;20451;-75
2022/11/13 00:09:34;;;;;;;26.70;23.80;;;;;;;;;;5072750;28;20440;-76
2022/11/13 00:12:01;;;;;;;27.47;24.47;;;;;;;;;;5071911;28;20491;-76
2022/11/13 00:14:30;;;;;;;28.00;25.20;;;;;;;;;;5071738;28;20460;-76
2022/11/13 00:16:57;;;;;;;29.53;26.27;;;;;;;;;;5072013;28;20451;-76
2022/11/13 00:19:24;;;;;;;28.30;25.60;;;;;;;;;;5072185;28;20452;-77
2022/11/13 00:21:51;;;;;;;28.57;25.70;;;;;;;;;;5072227;28;20448;-75
2022/11/13 00:24:18;;;;;;;28.33;25.33;;;;;;;;;;5070467;28;20476;-74
2022/11/13 00:26:45;;;;;;;26.07;23.43;;;;;;;;;;5072032;28;20445;-76
2022/11/13 00:29:12;;;;;;;27.57;24.67;;;;;;;;;;5072029;28;20452;-74
2022/11/13 00:31:40;;;;;;;27.77;24.87;;;;;;;;;;5071855;28;20480;-76
2022/11/13 00:34:07;;;;;;;28.37;25.47;;;;;;;;;;5071131;28;20475;-75
2022/11/13 00:36:34;;;;;;;28.10;25.20;;;;;;;;;;5071837;28;20451;-74
2022/11/13 00:39:02;;;;;;;27.00;24.20;;;;;;;;;;5071721;28;20440;-75
2022/11/13 00:41:29;;;;;;;28.70;25.97;;;;;;;;;;5071373;28;20445;-77
2022/11/13 00:43:56;;;;;;;28.47;25.60;;;;;;;;;;5070821;28;20464;-76
2022/11/13 00:46:23;;;;;;;27.40;24.70;;;;;;;;;;5071391;28;20448;-75
2022/11/13 00:48:51;;;;;;;27.33;24.53;;;;;;;;;;5071330;28;20448;-74
2022/11/13 00:51:18;;;;;;;28.97;26.07;;;;;;;;;;5071227;28;20494;-74
2022/11/13 00:53:45;;;;;;;26.83;23.97;;;;;;;;;;5070577;28;20508;-75
2022/11/13 00:56:12;;;;;;;27.30;24.60;;;;;;;;;;5071127;28;20793;-74
2022/11/13 00:58:40;;;;;;;25.93;23.40;;;;;;;;;;5070888;28;20467;-74
2022/11/13 01:01:07;;;;;;;25.43;23.00;;;;;;;;;;5071459;28;20448;-75
2022/11/13 01:03:35;;;;;;;27.03;24.23;;;;;;;;;;5070385;28;20479;-74
2022/11/13 01:06:09;;;;;;;27.53;24.73;;;;;;;;;;5070797;28;20452;-75
2022/11/13 01:08:36;;;;;;;26.13;23.47;;;;;;;;;;5071072;28;20448;-76
2022/11/13 01:11:08;;;;;;;27.40;24.57;;;;;;;;;;5070866;28;20500;-75
2022/11/13 01:13:35;;;;;;;26.47;23.93;;;;;;;;;;5058752;28;20454;-74
2022/11/13 01:16:05;;;;;;;28.00;24.93;;;;;;;;;;5051170;28;20552;-75
2022/11/13 01:18:32;;;;;;;28.43;25.53;;;;;;;;;;5061518;28;20802;-74
2022/11/13 01:21:04;;;;;;;27.10;24.40;;;;;;;;;;5070641;28;20928;-75
2022/11/13 01:23:31;;;;;;;26.20;23.53;;;;;;;;;;5069911;28;20476;-75
2022/11/13 01:26:04;;;;;;;28.50;25.60;;;;;;;;;;5070949;28;20448;-75
2022/11/13 01:28:31;;;;;;;28.77;25.60;;;;;;;;;;5071416;28;20440;-75
2022/11/13 01:30:58;;;;;;;27.33;24.53;;;;;;;;;;5070803;28;20477;-74
2022/11/13 01:33:25;;;;;;;30.03;26.83;;;;;;;;;;5069522;28;20479;-75
2022/11/13 01:35:53;;;;;;;28.80;26.00;;;;;;;;;;5070070;28;20463;-75
2022/11/13 01:38:21;;;;;;;28.37;25.47;;;;;;;;;;5070075;28;20779;-76
2022/11/13 01:40:48;;;;;;;28.87;25.87;;;;;;;;;;5071251;28;20440;-75
2022/11/13 01:43:23;;;;;;;30.00;26.77;;;;;;;;;;5070486;28;20483;-74
2022/11/13 01:46:05;;;;;;;41.30;27.90;;;;;;;;;;5070535;28;20440;-74
2022/11/13 01:48:34;;;;;;;54.03;28.20;;;;;;;;;;5069236;28;20518;-76
2022/11/13 01:51:01;;;;;;;171.87;37.50;;;;;;;;;;5071178;28;21007;-75
2022/11/13 01:53:30;;;;;;;45.23;29.87;;;;;;;;;;5069859;28;20460;-74
2022/11/13 01:55:57;;;;;;;220.17;36.80;;;;;;;;;;5070338;28;20441;-76
2022/11/13 01:58:24;;;;;;;113.00;32.30;;;;;;;;;;5070411;28;20447;-74
2022/11/13 02:00:51;;;;;;;206.97;38.20;;;;;;;;;;5070222;28;20445;-75
2022/11/13 02:03:18;;;;;;;158.67;38.37;;;;;;;;;;5069685;28;20867;-74
2022/11/13 02:05:46;;;;;;;183.57;36.30;;;;;;;;;;5070421;28;20456;-75
2022/11/13 02:08:13;;;;;;;201.50;36.00;;;;;;;;;;5070199;28;20552;-75
2022/11/13 02:10:41;;;;;;;43.90;27.47;;;;;;;;;;5069932;28;20936;-74
2022/11/13 02:13:08;;;;;;;82.40;29.23;;;;;;;;;;5069498;28;21010;-76
2022/11/13 02:15:35;;;;;;;107.73;30.90;;;;;;;;;;5069937;28;20448;-74
2022/11/13 02:18:03;;;;;;;98.43;33.63;;;;;;;;;;5070163;28;20463;-75
2022/11/13 02:20:33;;;;;;;82.57;29.23;;;;;;;;;;5069738;28;20826;-76
2022/11/13 02:23:04;;;;;;;103.67;31.47;;;;;;;;;;5069034;28;20480;-74
2022/11/13 02:25:32;;;;;;;53.60;27.50;;;;;;;;;;5069807;28;20453;-74
2022/11/13 02:27:59;;;;;;;53.10;24.70;;;;;;;;;;5070021;28;20443;-74
2022/11/13 02:30:28;;;;;;;38.17;26.07;;;;;;;;;;5069146;28;20455;-75
2022/11/13 02:32:56;;;;;;;45.27;24.67;;;;;;;;;;5061432;28;20505;-75
2022/11/13 02:35:26;;;;;;;38.67;25.77;;;;;;;;;;5069417;28;20515;-76
2022/11/13 02:37:53;;;;;;;33.97;25.37;;;;;;;;;;5062843;28;20437;-76
2022/11/13 02:40:20;;;;;;;38.73;25.70;;;;;;;;;;5065651;28;20448;-76
2022/11/13 02:42:48;;;;;;;26.70;23.93;;;;;;;;;;5069196;28;20457;-75
2022/11/13 02:45:15;;;;;;;48.03;24.97;;;;;;;;;;5069726;28;20448;-75
2022/11/13 02:47:43;;;;;;;43.93;26.23;;;;;;;;;;5070566;28;20440;-76
2022/11/13 02:50:10;;;;;;;54.83;26.93;;;;;;;;;;5073542;28;20453;-76
2022/11/13 02:52:37;;;;;;;91.80;31.60;;;;;;;;;;5072809;28;20505;-75
2022/11/13 02:55:05;;;;;;;58.23;27.40;;;;;;;;;;5073447;28;20454;-75
2022/11/13 02:57:32;;;;;;;80.67;31.60;;;;;;;;;;5073919;28;20444;-75
2022/11/13 03:00:00;;;;;;;50.03;27.57;;;;;;;;;;5073684;28;20448;-76
2022/11/13 03:02:27;;;;;;;83.57;29.93;;;;;;;;;;5073858;28;20444;-75
2022/11/13 03:04:54;;;;;;;121.00;32.97;;;;;;;;;;5074914;28;20447;-75
2022/11/13 03:07:22;;;;;;;89.10;32.03;;;;;;;;;;5080647;28;20440;-74
2022/11/13 03:09:49;;;;;;;155.40;38.50;;;;;;;;;;5082086;28;20458;-74
2022/11/13 03:12:16;;;;;;;133.50;32.47;;;;;;;;;;5073981;28;20483;-76
2022/11/13 03:14:43;;;;;;;77.10;28.40;;;;;;;;;;5077640;28;20915;-74
2022/11/13 03:17:11;;;;;;;78.17;28.83;;;;;;;;;;5075462;28;20808;-75
2022/11/13 03:19:39;;;;;;;114.10;32.50;;;;;;;;;;5077692;28;20462;-76
2022/11/13 03:22:06;;;;;;;156.70;37.97;;;;;;;;;;5075453;28;20829;-76
2022/11/13 03:24:33;;;;;;;73.33;32.03;;;;;;;;;;5072488;28;20487;-74
2022/11/13 03:27:00;;;;;;;62.30;30.17;;;;;;;;;;5073322;28;20444;-74
2022/11/13 03:29:27;;;;;;;64.67;31.27;;;;;;;;;;5073144;28;20432;-74
2022/11/13 03:31:54;;;;;;;112.37;29.60;;;;;;;;;;5072820;28;20485;-75
2022/11/13 03:34:23;;;;;;;36.63;28.33;;;;;;;;;;5072069;28;20550;-76
2022/11/13 03:36:50;;;;;;;38.10;27.70;;;;;;;;;;5073056;28;20449;-76
2022/11/13 03:39:17;;;;;;;38.20;29.60;;;;;;;;;;5074372;28;20961;-75
2022/11/13 03:41:44;;;;;;;46.50;29.47;;;;;;;;;;5072960;28;21015;-75
2022/11/13 03:44:11;;;;;;;57.80;32.33;;;;;;;;;;5071957;28;20464;-75
2022/11/13 03:46:38;;;;;;;62.53;31.60;;;;;;;;;;5072793;28;20444;-74
2022/11/13 03:49:05;;;;;;;63.97;31.10;;;;;;;;;;5072632;28;20449;-75
2022/11/13 03:51:34;;;;;;;40.47;30.40;;;;;;;;;;5072406;28;20458;-75
2022/11/13 03:54:01;;;;;;;40.77;28.40;;;;;;;;;;5071701;28;20480;-75
2022/11/13 03:56:28;;;;;;;38.37;27.30;;;;;;;;;;5072577;28;20444;-74
2022/11/13 03:58:55;;;;;;;30.13;23.90;;;;;;;;;;5072169;28;20448;-74
2022/11/13 04:01:22;;;;;;;25.20;22.60;;;;;;;;;;5072430;28;20479;-75
2022/11/13 04:03:49;;;;;;;24.07;21.57;;;;;;;;;;5072202;28;20469;-75
2022/11/13 04:06:16;;;;;;;23.53;20.80;;;;;;;;;;5072500;28;20443;-76
2022/11/13 04:08:44;;;;;;;24.37;21.60;;;;;;;;;;5072525;28;20445;-75
2022/11/13 04:11:12;;;;;;;23.80;21.30;;;;;;;;;;5072364;28;20444;-74
2022/11/13 04:13:39;;;;;;;23.50;20.97;;;;;;;;;;5071739;28;20824;-74
2022/11/13 04:16:07;;;;;;;27.00;20.20;;;;;;;;;;5067716;28;21010;-75
2022/11/13 04:18:34;;;;;;;23.70;21.03;;;;;;;;;;5072756;28;20443;-76
2022/11/13 04:21:01;;;;;;;27.03;22.60;;;;;;;;;;5072974;28;20441;-75
2022/11/13 04:23:28;;;;;;;24.40;20.83;;;;;;;;;;5072045;28;20488;-75
2022/11/13 04:25:57;;;;;;;22.70;20.40;;;;;;;;;;5072426;28;20443;-74
2022/11/13 04:28:24;;;;;;;27.83;22.47;;;;;;;;;;5071963;28;20447;-75
2022/11/13 04:30:53;;;;;;;27.63;21.33;;;;;;;;;;5071729;28;20951;-75
2022/11/13 04:33:20;;;;;;;26.73;21.10;;;;;;;;;;5071053;28;20463;-74
2022/11/13 04:35:48;;;;;;;24.37;20.23;;;;;;;;;;5072055;28;20955;-74
2022/11/13 04:38:15;;;;;;;36.70;20.63;;;;;;;;;;5072701;28;20448;-74
2022/11/13 04:40:42;;;;;;;22.70;20.40;;;;;;;;;;5072056;28;20447;-75
2022/11/13 04:43:09;;;;;;;34.30;20.90;;;;;;;;;;5072358;28;20492;-75
2022/11/13 04:45:36;;;;;;;22.90;20.50;;;;;;;;;;5072468;28;20960;-75
2022/11/13 04:48:04;;;;;;;22.33;20.03;;;;;;;;;;5071708;28;20462;-75
2022/11/13 04:50:31;;;;;;;22.30;19.07;;;;;;;;;;5071434;28;20940;-75
2022/11/13 04:52:58;;;;;;;23.43;19.80;;;;;;;;;;5070993;28;20467;-75
2022/11/13 04:55:25;;;;;;;22.87;20.57;;;;;;;;;;5071234;28;20444;-75
2022/11/13 04:57:54;;;;;;;26.77;19.97;;;;;;;;;;5070791;28;20945;-75
2022/11/13 05:00:22;;;;;;;21.50;19.30;;;;;;;;;;5070753;28;20456;-75
2022/11/13 05:02:49;;;;;;;21.33;18.60;;;;;;;;;;5070397;28;20491;-75
2022/11/13 05:05:16;;;;;;;20.57;18.47;;;;;;;;;;5070961;28;20476;-74
2022/11/13 05:07:43;;;;;;;20.47;17.93;;;;;;;;;;5070844;28;20474;-75
2022/11/13 05:10:11;;;;;;;19.77;17.77;;;;;;;;;;5070768;28;20447;-75
2022/11/13 05:12:38;;;;;;;24.70;19.30;;;;;;;;;;5070242;28;20823;-74
2022/11/13 05:15:05;;;;;;;20.70;18.47;;;;;;;;;;5070714;28;20478;-75
2022/11/13 05:17:33;;;;;;;21.50;17.90;;;;;;;;;;5070628;28;20908;-74
2022/11/13 05:20:01;;;;;;;19.70;17.60;;;;;;;;;;5070660;28;20801;-75
2022/11/13 05:22:28;;;;;;;27.70;18.77;;;;;;;;;;5070422;28;20472;-75
2022/11/13 05:24:55;;;;;;;20.77;17.97;;;;;;;;;;5069682;28;20956;-75
2022/11/13 05:27:22;;;;;;;20.53;18.43;;;;;;;;;;5070342;28;20455;-75
2022/11/13 05:29:49;;;;;;;18.80;16.80;;;;;;;;;;5070647;28;20448;-74
2022/11/13 05:32:16;;;;;;;21.13;18.93;;;;;;;;;;5065152;28;21007;-75
2022/11/13 05:34:44;;;;;;;25.03;18.00;;;;;;;;;;5069499;28;20440;-74
2022/11/13 05:37:12;;;;;;;28.43;19.93;;;;;;;;;;5070383;28;20440;-75
2022/11/13 05:39:39;;;;;;;27.63;17.40;;;;;;;;;;5070417;28;20780;-74
2022/11/13 05:42:06;;;;;;;22.13;17.30;;;;;;;;;;5068618;28;20857;-75
2022/11/13 05:44:33;;;;;;;17.73;16.00;;;;;;;;;;5069537;28;20467;-75
2022/11/13 05:47:00;;;;;;;19.43;16.77;;;;;;;;;;5070409;28;20452;-75
2022/11/13 05:49:27;;;;;;;17.33;15.50;;;;;;;;;;5070040;28;21110;-74
2022/11/13 05:51:55;;;;;;;15.87;14.37;;;;;;;;;;5070020;28;20450;-75
2022/11/13 05:54:23;;;;;;;16.30;14.70;;;;;;;;;;5069463;28;20471;-74
2022/11/13 05:56:50;;;;;;;16.93;14.17;;;;;;;;;;5070114;28;21269;-74
2022/11/13 05:59:17;;;;;;;14.83;13.33;;;;;;;;;;5070086;28;20962;-76
2022/11/13 06:01:44;;;;;;;13.43;12.10;;;;;;;;;;5070089;28;20924;-74
2022/11/13 06:04:11;;;;;;;14.20;12.90;;;;;;;;;;5069355;28;20477;-76
2022/11/13 06:06:38;;;;;;;15.57;14.17;;;;;;;;;;5070294;28;20455;-75
2022/11/13 06:09:07;;;;;;;15.07;13.47;;;;;;;;;;5069870;28;20446;-75
2022/11/13 06:11:34;;;;;;;14.70;13.30;;;;;;;;;;5070302;28;20447;-75
2022/11/13 06:14:01;;;;;;;14.40;13.03;;;;;;;;;;5069199;28;20467;-74
2022/11/13 06:16:29;;;;;;;14.07;12.67;;;;;;;;;;5070328;28;20450;-74
2022/11/13 06:18:57;;;;;;;14.20;13.00;;;;;;;;;;5070091;28;20441;-75
2022/11/13 06:21:25;;;;;;;13.77;12.40;;;;;;;;;;5069947;28;20444;-75
2022/11/13 06:23:52;;;;;;;13.70;12.40;;;;;;;;;;5071544;28;20494;-75
2022/11/13 06:26:21;;;;;;;16.13;14.50;;;;;;;;;;5074274;28;20523;-75
2022/11/13 06:28:49;;;;;;;16.43;13.87;;;;;;;;;;5074182;28;20452;-75
2022/11/13 06:31:17;;;;;;;16.53;14.93;;;;;;;;;;5074223;28;20448;-75
2022/11/13 06:33:44;;;;;;;15.67;14.17;;;;;;;;;;5073173;28;20828;-75
2022/11/13 06:36:13;;;;;;;15.07;13.50;;;;;;;;;;5074026;28;20935;-76
2022/11/13 06:38:40;;;;;;;15.13;13.73;;;;;;;;;;5074106;28;20964;-74
2022/11/13 06:41:08;;;;;;;17.37;15.67;;;;;;;;;;5074627;28;20443;-74
2022/11/13 06:43:36;;;;;;;15.10;13.53;;;;;;;;;;5073878;28;20515;-74
2022/11/13 06:46:04;;;;;;;15.87;14.40;;;;;;;;;;5074145;28;20455;-76
2022/11/13 06:48:31;;;;;;;15.13;13.63;;;;;;;;;;5074101;28;20444;-75
2022/11/13 06:51:02;;;;;;;14.07;12.77;;;;;;;;;;5074375;28;20448;-75
2022/11/13 06:53:29;;;;;;;13.87;12.67;;;;;;;;;;5073891;28;20492;-75
2022/11/13 06:55:56;;;;;;;14.03;12.43;;;;;;;;;;5074324;28;20447;-75
2022/11/13 06:58:23;;;;;;;14.63;13.20;;;;;;;;;;5074311;28;20443;-75
2022/11/13 07:00:52;;;;;;;15.50;14.00;;;;;;;;;;5074237;28;20444;-76
2022/11/13 07:03:19;;;;;;;13.87;12.47;;;;;;;;;;5073870;28;20483;-76
2022/11/13 07:05:47;;;;;;;16.10;14.70;;;;;;;;;;5075197;28;20455;-75
2022/11/13 07:08:14;;;;;;;14.63;13.33;;;;;;;;;;5073757;28;21120;-75
2022/11/13 07:10:42;;;;;;;15.83;14.43;;;;;;;;;;5073834;28;20458;-75
2022/11/13 07:13:09;;;;;;;16.03;14.53;;;;;;;;;;5073619;28;20475;-75
2022/11/13 07:15:37;;;;;;;15.20;13.73;;;;;;;;;;5074535;28;20450;-76
2022/11/13 07:18:05;;;;;;;15.60;14.10;;;;;;;;;;5076034;28;20443;-74
2022/11/13 07:20:33;;;;;;;16.40;14.53;;;;;;;;;;5078664;28;20450;-75
2022/11/13 07:23:01;;;;;;;16.47;14.77;;;;;;;;;;5073360;28;20484;-75
2022/11/13 07:25:29;;;;;;;15.70;14.20;;;;;;;;;;5074748;28;20432;-75
2022/11/13 07:27:56;;;;;;;19.10;16.07;;;;;;;;;;5075730;28;20436;-76
2022/11/13 07:30:23;;;;;;;16.87;13.97;;;;;;;;;;5076261;28;20444;-76
2022/11/13 07:32:50;;;;;;;17.27;15.57;;;;;;;;;;5079108;28;20458;-76
2022/11/13 07:35:19;;;;;;;16.40;14.77;;;;;;;;;;5075631;28;20444;-75
2022/11/13 07:37:46;;;;;;;16.77;14.83;;;;;;;;;;5081571;28;20636;-76
2022/11/13 07:40:13;;;;;;;16.97;15.27;;;;;;;;;;5080367;28;20446;-74
2022/11/13 07:42:40;;;;;;;17.80;16.00;;;;;;;;;;5078296;28;20492;-76
2022/11/13 07:45:07;;;;;;;16.27;14.57;;;;;;;;;;5076832;28;20477;-75
2022/11/13 07:47:35;;;;;;;16.07;14.57;;;;;;;;;;5072479;28;20448;-75
2022/11/13 07:50:02;;;;;;;16.40;14.90;;;;;;;;;;5072601;28;20960;-74
2022/11/13 07:52:30;;;;;;;16.50;15.00;;;;;;;;;;5072119;28;20436;-75
2022/11/13 07:54:57;;;;;;;15.57;14.17;;;;;;;;;;5072243;28;20813;-75
2022/11/13 07:57:26;;;;;;;14.60;13.23;;;;;;;;;;5072430;28;20936;-76
2022/11/13 07:59:53;;;;;;;14.23;12.83;;;;;;;;;;5052575;28;20964;-76
2022/11/13 08:02:20;;;;;;;15.00;13.50;;;;;;;;;;5052456;28;20446;-74
2022/11/13 08:04:47;;;;;;;14.90;13.40;;;;;;;;;;5051911;28;20443;-75
2022/11/13 08:07:14;;;;;;;15.43;13.93;;;;;;;;;;5052994;28;20449;-75
2022/11/13 08:09:42;;;;;;;16.50;14.80;;;;;;;;;;5053539;28;20456;-75
2022/11/13 08:12:09;;;;;;;15.30;13.80;;;;;;;;;;5053342;28;20445;-74
2022/11/13 08:14:37;;;;;;;15.80;14.30;;;;;;;;;;5052480;28;21034;-76
2022/11/13 08:17:04;;;;;;;17.70;15.90;;;;;;;;;;5052422;28;20492;-75
2022/11/13 08:19:31;;;;;;;15.13;13.93;;;;;;;;;;5052869;28;20945;-74
2022/11/13 08:21:58;;;;;;;16.83;15.10;;;;;;;;;;5052303;28;20940;-75
2022/11/13 08:24:25;;;;;;;17.33;15.60;;;;;;;;;;5050994;28;20590;-74
2022/11/13 08:26:53;;;;;;;16.10;14.60;;;;;;;;;;5052012;28;20454;-76
2022/11/13 08:29:21;;;;;;;16.03;14.33;;;;;;;;;;5051815;28;20438;-75
2022/11/13 08:31:48;;;;;;;15.20;13.80;;;;;;;;;;5051957;28;20449;-75
2022/11/13 08:34:15;;;;;;;14.60;13.30;;;;;;;;;;5051271;28;20464;-74
2022/11/13 08:36:42;;;;;;;16.10;14.40;;;;;;;;;;5052225;28;20449;-75
2022/11/13 08:39:09;;;;;;;15.70;14.20;;;;;;;;;;5052812;28;20456;-75
2022/11/13 08:41:36;;;;;;;15.23;13.73;;;;;;;;;;5053617;28;20444;-76
2022/11/13 08:44:05;;;;;;;15.70;14.30;;;;;;;;;;5065744;28;20525;-76
2022/11/13 08:46:32;;;;;;;17.20;15.40;;;;;;;;;;5071224;28;20447;-76
2022/11/13 08:48:59;;;;;;;16.70;15.07;;;;;;;;;;5071540;28;20445;-75
2022/11/13 08:51:26;;;;;;;16.40;14.73;;;;;;;;;;5071585;28;20443;-76
2022/11/13 08:53:53;;;;;;;16.10;14.70;;;;;;;;;;5070806;28;20475;-75
2022/11/13 08:56:20;;;;;;;15.70;14.30;;;;;;;;;;5071866;28;20445;-76
2022/11/13 08:58:47;;;;;;;15.53;14.03;;;;;;;;;;5070876;28;20467;-75
2022/11/13 09:01:16;;;;;;;15.07;13.63;;;;;;;;;;5071741;28;20455;-74
2022/11/13 09:03:43;;;;;;;14.30;13.10;;;;;;;;;;5071449;28;20692;-75
2022/11/13 09:06:10;;;;;;;15.60;14.00;;;;;;;;;;5071571;28;20455;-75
2022/11/13 09:08:37;;;;;;;14.80;13.37;;;;;;;;;;5071874;28;20539;-76
2022/11/13 09:11:05;;;;;;;16.17;14.67;;;;;;;;;;5071399;28;20447;-75
2022/11/13 09:13:32;;;;;;;15.53;14.13;;;;;;;;;;5059320;28;20462;-75
2022/11/13 09:16:01;;;;;;;14.90;13.40;;;;;;;;;;5051312;28;20449;-76
2022/11/13 09:18:30;;;;;;;15.17;13.80;;;;;;;;;;5051938;28;20459;-75
2022/11/13 09:21:03;;;;;;;15.00;13.70;;;;;;;;;;5051131;28;20453;-76
2022/11/13 09:23:30;;;;;;;14.90;13.67;;;;;;;;;;5050739;28;21208;-75
2022/11/13 09:25:57;;;;;;;14.93;13.63;;;;;;;;;;5050856;28;20453;-75
2022/11/13 09:28:24;;;;;;;13.87;12.63;;;;;;;;;;5050783;28;20445;-76
2022/11/13 09:30:51;;;;;;;14.27;13.07;;;;;;;;;;5069232;28;20445;-76
2022/11/13 09:33:18;;;;;;;13.63;12.50;;;;;;;;;;5070908;28;20959;-76
2022/11/13 09:35:47;;;;;;;13.90;12.80;;;;;;;;;;5070877;28;20449;-75
2022/11/13 09:38:15;;;;;;;14.67;13.37;;;;;;;;;;5070665;28;21005;-74
2022/11/13 09:40:44;;;;;;;14.03;12.73;;;;;;;;;;5070712;28;20816;-76
2022/11/13 09:43:18;;;;;;;13.30;12.00;;;;;;;;;;5069691;28;20483;-76
2022/11/13 09:45:45;;;;;;;13.37;12.27;;;;;;;;;;5070480;28;20506;-75
2022/11/13 09:48:16;;;;;;;14.23;13.03;;;;;;;;;;5071049;28;20440;-75
2022/11/13 09:50:43;;;;;;;13.33;12.30;;;;;;;;;;5070914;28;20426;-76
2022/11/13 09:53:13;;;;;;;13.53;12.33;;;;;;;;;;5070371;28;20564;-75
2022/11/13 09:55:42;;;;;;;13.30;12.20;;;;;;;;;;5071219;28;20449;-75
2022/11/13 09:58:13;;;;;;;13.77;12.47;;;;;;;;;;5069839;28;20451;-76
2022/11/13 10:00:40;;;;;;;12.13;11.13;;;;;;;;;;5070719;28;20906;-75
2022/11/13 10:03:17;;;;;;;12.10;11.00;;;;;;;;;;5070024;28;20485;-75
2022/11/13 10:05:46;;;;;;;11.83;10.93;;;;;;;;;;5070760;28;20430;-75
2022/11/13 10:08:17;;;;;;;12.07;11.07;;;;;;;;;;5070306;28;20445;-75
2022/11/13 10:10:48;;;;;;;11.27;10.20;;;;;;;;;;5071266;28;20484;-76
2022/11/13 10:13:18;;;;;;;12.30;11.40;;;;;;;;;;5066732;28;20534;-75
2022/11/13 10:15:47;;;;;;;11.90;10.47;;;;;;;;;;5070913;28;20450;-75
2022/11/13 10:18:16;;;;;;;12.00;11.00;;;;;;;;;;5075941;28;20540;-75
2022/11/13 10:20:48;;;;;;;12.03;11.03;;;;;;;;;;5071806;28;20447;-75
2022/11/13 10:23:17;;;;;;;12.83;11.73;;;;;;;;;;5069887;28;20877;-77
2022/11/13 10:25:45;;;;;;;11.87;10.90;;;;;;;;;;5072214;28;20448;-74
2022/11/13 10:28:14;;;;;;;11.83;10.83;;;;;;;;;;5082845;28;20438;-75
2022/11/13 10:30:59;;;;;;;11.33;10.40;;;;;;;;;;5075751;28;20444;-76
2022/11/13 10:33:32;;;;;;;11.80;10.90;;;;;;;;;;5087311;28;20502;-77
2022/11/13 10:36:01;;;;;;;13.00;11.90;;;;;;;;;;5094341;28;20445;-75
2022/11/13 10:38:32;;;;;;;12.03;11.00;;;;;;;;;;5096173;28;20434;-76
2022/11/13 10:41:08;;;;;;;11.30;10.40;;;;;;;;;;5093487;28;20455;-76
2022/11/13 10:43:35;;;;;;;12.80;11.77;;;;;;;;;;5079190;28;20476;-75
2022/11/13 10:46:03;;;;;;;11.10;10.20;;;;;;;;;;5072068;28;20448;-77
2022/11/13 10:48:31;;;;;;;11.63;10.73;;;;;;;;;;5070689;28;20440;-76
2022/11/13 10:50:59;;;;;;;11.50;10.60;;;;;;;;;;5070197;28;20444;-76
2022/11/13 10:53:26;;;;;;;11.60;10.70;;;;;;;;;;5070166;28;20468;-75
2022/11/13 10:55:57;;;;;;;11.30;10.43;;;;;;;;;;5070695;28;20463;-75
2022/11/13 10:58:24;;;;;;;12.73;11.77;;;;;;;;;;5070391;28;20449;-75
2022/11/13 11:00:52;;;;;;;12.30;11.30;;;;;;;;;;5073060;28;20928;-77
2022/11/13 11:03:21;;;;;;;10.97;10.07;;;;;;;;;;5073854;28;20480;-76
2022/11/13 11:05:55;;;;;;;11.43;10.53;;;;;;;;;;5071277;28;20528;-75
2022/11/13 11:08:24;;;;;;;11.73;10.83;;;;;;;;;;5070807;28;20821;-76
2022/11/13 11:13:41;;;;;;;12.20;11.30;;;;;;;;;;5074011;28;20589;-76
2022/11/13 11:16:09;;;;;;;11.80;10.90;;;;;;;;;;5075335;28;20817;-76
2022/11/13 11:18:40;;;;;;;11.60;10.70;;;;;;;;;;5073957;28;20448;-76
2022/11/13 11:21:08;;;;;;;12.87;11.83;;;;;;;;;;5074250;28;20437;-76
2022/11/13 11:23:40;;;;;;;12.43;11.43;;;;;;;;;;5072905;28;20484;-76
2022/11/13 11:26:12;;;;;;;12.80;11.60;;;;;;;;;;5074843;28;20817;-75
2022/11/13 11:28:42;;;;;;;23.30;21.20;;;;;;;;;;5073697;28;20913;-75
2022/11/13 11:31:12;;;;;;;29.13;26.30;;;;;;;;;;5073346;28;20548;-78
2022/11/13 11:33:48;;;;;;;26.20;23.63;;;;;;;;;;5072723;28;20461;-76
2022/11/13 11:36:18;;;;;;;12.77;11.77;;;;;;;;;;5073485;28;20431;-75
2022/11/13 11:38:48;;;;;;;12.27;11.37;;;;;;;;;;5073875;28;20421;-75
2022/11/13 11:41:19;;;;;;;11.17;10.27;;;;;;;;;;5080423;28;20517;-76
2022/11/13 11:43:47;;;;;;;10.60;9.70;;;;;;;;;;5089661;28;20481;-77
2022/11/13 11:46:14;;;;;;;12.60;11.60;;;;;;;;;;5089262;28;20435;-76
2022/11/13 11:48:41;;;;;;;12.00;10.90;;;;;;;;;;5091956;28;20437;-77
2022/11/13 11:51:13;;;;;;;12.07;11.00;;;;;;;;;;5092864;28;20779;-76
2022/11/13 11:53:45;;;;;;;11.27;10.47;;;;;;;;;;5092294;28;20504;-76
2022/11/13 11:56:22;;;;;;;10.73;9.83;;;;;;;;;;5093394;28;20453;-76
2022/11/13 11:59:04;;;;;;;10.80;10.00;;;;;;;;;;5093577;28;20437;-76
2022/11/13 12:01:37;;;;;;;11.60;10.63;;;;;;;;;;5079314;28;20912;-76
2022/11/13 12:04:15;;;;;;;11.97;10.97;;;;;;;;;;5075889;28;20492;-75
2022/11/13 12:06:49;;;;;;;11.00;10.10;;;;;;;;;;5077125;28;20435;-76
2022/11/13 12:09:19;;;;;;;11.70;10.80;;;;;;;;;;5077495;28;20444;-76
2022/11/13 12:11:51;;;;;;;10.57;9.77;;;;;;;;;;5077293;28;20619;-77
2022/11/13 12:14:23;;;;;;;11.43;10.43;;;;;;;;;;5063320;28;20455;-76
2022/11/13 12:16:53;;;;;;;12.03;11.03;;;;;;;;;;5072916;28;20954;-76
2022/11/13 12:19:24;;;;;;;11.57;10.67;;;;;;;;;;5072578;28;20931;-76
2022/11/13 12:21:56;;;;;;;10.77;9.90;;;;;;;;;;5071503;28;20445;-78
2022/11/13 12:24:42;;;;;;;12.07;10.97;;;;;;;;;;5071796;28;20477;-76
2022/11/13 12:27:17;;;;;;;11.83;10.93;;;;;;;;;;5072604;28;20440;-75
2022/11/13 12:29:51;;;;;;;12.67;11.70;;;;;;;;;;5072637;28;20424;-76
2022/11/13 12:32:25;;;;;;;11.47;10.50;;;;;;;;;;5072218;28;20963;-76
2022/11/13 12:34:53;;;;;;;11.50;10.60;;;;;;;;;;5072072;28;20476;-77
2022/11/13 12:37:23;;;;;;;12.90;11.80;;;;;;;;;;5072205;28;20482;-75
2022/11/13 12:39:54;;;;;;;11.10;10.23;;;;;;;;;;5071889;28;20901;-76
2022/11/13 12:42:26;;;;;;;11.73;10.73;;;;;;;;;;5071626;28;21083;-76
2022/11/13 12:44:57;;;;;;;12.10;11.20;;;;;;;;;;5070848;28;20476;-76
2022/11/13 12:47:24;;;;;;;12.47;11.50;;;;;;;;;;5071764;28;20445;-76
2022/11/13 12:49:59;;;;;;;12.90;11.70;;;;;;;;;;5071743;28;20444;-75
2022/11/13 12:52:26;;;;;;;11.83;10.73;;;;;;;;;;5071580;28;20769;-76
2022/11/13 12:55:03;;;;;;;11.60;10.70;;;;;;;;;;5070838;28;20464;-76
2022/11/13 12:57:33;;;;;;;10.93;10.03;;;;;;;;;;5071173;28;20803;-76
2022/11/13 13:00:11;;;;;;;12.00;11.00;;;;;;;;;;5071643;28;20525;-77
2022/11/13 13:02:40;;;;;;;11.50;10.60;;;;;;;;;;5070780;28;20473;-77
2022/11/13 13:05:21;;;;;;;11.93;10.83;;;;;;;;;;5071515;28;20914;-76
2022/11/13 13:07:55;;;;;;;11.73;10.73;;;;;;;;;;5073761;28;20445;-76
2022/11/13 13:10:25;;;;;;;11.63;10.63;;;;;;;;;;5072440;28;20461;-76
2022/11/13 13:12:58;;;;;;;10.50;9.50;;;;;;;;;;5065631;28;20473;-76
2022/11/13 13:15:32;;;;;;;15.63;14.20;;;;;;;;;;5051389;28;20933;-76
2022/11/13 13:18:07;;;;;;;10.70;9.80;;;;;;;;;;5051757;28;20442;-76
2022/11/13 13:20:35;;;;;;;10.50;9.70;;;;;;;;;;5051435;28;20441;-78
2022/11/13 13:23:03;;;;;;;10.90;9.90;;;;;;;;;;5051875;28;20831;-78
2022/11/13 13:25:31;;;;;;;11.50;10.50;;;;;;;;;;5051743;28;20491;-77
2022/11/13 13:28:00;;;;;;;11.10;10.00;;;;;;;;;;5052284;28;20447;-76
2022/11/13 13:30:30;;;;;;;11.53;10.53;;;;;;;;;;5052684;28;20452;-76
2022/11/13 13:33:01;;;;;;;10.87;10.07;;;;;;;;;;5051853;28;20552;-77
2022/11/13 13:35:31;;;;;;;9.70;8.83;;;;;;;;;;5051150;28;20444;-76
2022/11/13 13:38:02;;;;;;;11.07;10.17;;;;;;;;;;5050654;28;20442;-76
2022/11/13 13:40:32;;;;;;;10.60;9.77;;;;;;;;;;5051222;28;20453;-76
2022/11/13 13:43:08;;;;;;;10.20;9.50;;;;;;;;;;5050395;28;20468;-75
2022/11/13 13:45:43;;;;;;;10.17;9.37;;;;;;;;;;5053233;28;20480;-77
2022/11/13 13:48:11;;;;;;;11.27;10.27;;;;;;;;;;5051340;28;20456;-76
2022/11/13 13:50:41;;;;;;;10.17;9.27;;;;;;;;;;5050606;28;20957;-77
2022/11/13 13:53:09;;;;;;;10.53;9.63;;;;;;;;;;5050481;28;20461;-76
2022/11/13 13:55:38;;;;;;;10.23;9.43;;;;;;;;;;5050575;28;20803;-76
2022/11/13 13:58:09;;;;;;;10.63;9.73;;;;;;;;;;5051081;28;21083;-75
2022/11/13 14:00:36;;;;;;;10.83;10.00;;;;;;;;;;5051338;28;20442;-76
2022/11/13 14:03:03;;;;;;;11.10;10.20;;;;;;;;;;5050591;28;20465;-75
2022/11/13 14:05:31;;;;;;;9.90;9.10;;;;;;;;;;5051138;28;20519;-77
2022/11/13 14:07:59;;;;;;;10.40;9.57;;;;;;;;;;5052466;28;20437;-76
2022/11/13 14:10:27;;;;;;;10.27;9.37;;;;;;;;;;5073324;28;20446;-77
2022/11/13 14:12:55;;;;;;;10.47;9.67;;;;;;;;;;5076880;28;20452;-77
2022/11/13 14:15:28;;;;;;;11.77;10.77;;;;;;;;;;5091747;28;20444;-75
2022/11/13 14:18:05;;;;;;;10.67;9.77;;;;;;;;;;5094724;28;20441;-76
2022/11/13 14:20:36;;;;;;;11.40;10.40;;;;;;;;;;5081491;28;20433;-76
2022/11/13 14:23:03;;;;;;;11.40;10.50;;;;;;;;;;5070461;28;20471;-76
2022/11/13 14:25:30;;;;;;;12.77;11.57;;;;;;;;;;5070501;28;20486;-78
2022/11/13 14:27:57;;;;;;;12.43;11.30;;;;;;;;;;5070689;28;20543;-76